createdAt,value
2022-12-05T00:01:56.515Z,93.94
2022-12-05T00:04:29.958Z,94.49
2022-12-05T00:07:02.145Z,92.57
2022-12-05T00:09:34.774Z,92.94
2022-12-05T00:12:07.413Z,92.60
2022-12-05T00:14:39.905Z,92.29
2022-12-05T00:17:14.604Z,90.56
2022-12-05T00:19:49.067Z,91.69
2022-12-05T00:22:24.553Z,91.64
2022-12-05T00:24:57.087Z,93.28
2022-12-05T00:27:29.225Z,93.37
2022-12-05T00:33:05.334Z,90.67
2022-12-05T00:35:37.684Z,90.59
2022-12-05T00:38:09.803Z,90.57
2022-12-05T00:40:42.306Z,91.21
2022-12-05T00:43:14.333Z,91.90
2022-12-05T00:45:46.677Z,90.87
2022-12-05T00:48:21.413Z,91.14
2022-12-05T00:50:53.735Z,90.85
2022-12-05T00:53:25.825Z,91.65
2022-12-05T00:56:07.136Z,90.55
2022-12-05T00:58:39.653Z,90.63
2022-12-05T01:01:13.789Z,90.60
2022-12-05T01:03:49.956Z,92.61
2022-12-05T01:06:22.235Z,92.94
2022-12-05T01:08:54.667Z,90.44
2022-12-05T01:11:27.784Z,92.55
2022-12-05T01:14:00.948Z,92.54
2022-12-05T01:17:22.186Z,90.92
2022-12-05T01:19:57.068Z,91.35
2022-12-05T01:22:29.489Z,91.63
2022-12-05T01:25:01.845Z,92.31
2022-12-05T01:27:34.296Z,93.22
2022-12-05T01:30:06.823Z,94.04
2022-12-05T01:32:39.316Z,94.56
2022-12-05T01:35:14.466Z,94.12
2022-12-05T01:37:46.894Z,93.20
2022-12-05T01:40:19.075Z,91.55
2022-12-05T01:42:51.565Z,93.97
2022-12-05T01:45:31.006Z,92.80
2022-12-05T01:48:05.407Z,92.96
2022-12-05T01:50:41.298Z,93.91
2022-12-05T01:53:14.064Z,94.73
2022-12-05T01:55:47.154Z,94.41
2022-12-05T01:58:19.955Z,94.57
2022-12-05T02:00:51.904Z,94.17
2022-12-05T02:03:25.034Z,94.22
2022-12-05T02:06:02.163Z,93.21
2022-12-05T02:08:34.913Z,91.73
2022-12-05T02:11:10.852Z,93.31
2022-12-05T02:13:59.015Z,94.25
2022-12-05T02:16:48.658Z,94.66
2022-12-05T02:19:52.375Z,93.52
2022-12-05T02:22:52.036Z,93.67
2022-12-05T02:25:50.104Z,93.27
2022-12-05T02:28:56.714Z,95.28
2022-12-05T02:31:38.304Z,94.80
2022-12-05T02:34:19.553Z,94.90
2022-12-05T02:37:00.524Z,95.33
2022-12-05T02:39:40.048Z,93.81
2022-12-05T02:42:16.693Z,93.82
2022-12-05T02:44:55.694Z,94.91
2022-12-05T02:47:35.915Z,96.74
2022-12-05T02:50:11.657Z,96.15
2022-12-05T02:52:45.627Z,95.18
2022-12-05T02:55:19.595Z,94.28
2022-12-05T02:57:56.214Z,96.47
2022-12-05T03:00:28.136Z,98.21
2022-12-05T03:03:04.115Z,97.88
2022-12-05T03:05:44.307Z,97.21
2022-12-05T03:08:21.719Z,95.83
2022-12-05T03:10:56.835Z,94.61
2022-12-05T03:13:35.642Z,94.78
2022-12-05T03:16:15.440Z,95.98
2022-12-05T03:18:54.186Z,94.83
2022-12-05T03:21:37.973Z,95.67
2022-12-05T03:24:14.785Z,96.07
2022-12-05T03:26:54.535Z,96.06
2022-12-05T03:29:33.306Z,95.29
2022-12-05T03:32:20.725Z,96.21
2022-12-05T03:35:07.136Z,97.52
2022-12-05T03:37:48.553Z,95.82
2022-12-05T03:40:31.165Z,95.15
2022-12-05T03:43:11.135Z,95.39
2022-12-05T03:45:50.330Z,93.01
2022-12-05T03:48:29.005Z,93.61
2022-12-05T03:51:07.225Z,94.23
2022-12-05T03:53:42.555Z,95.43
2022-12-05T03:56:20.034Z,95.31
2022-12-05T03:58:57.213Z,94.28
2022-12-05T04:01:32.843Z,94.26
2022-12-05T04:04:11.696Z,94.74
2022-12-05T04:06:51.796Z,94.66
2022-12-05T04:09:29.462Z,94.05
2022-12-05T04:12:05.737Z,92.97
2022-12-05T04:14:43.671Z,94.15
2022-12-05T04:17:20.926Z,93.61
2022-12-05T04:20:09.053Z,93.63
2022-12-05T04:22:44.906Z,94.03
2022-12-05T04:25:31.306Z,94.95
2022-12-05T04:28:21.243Z,95.61
2022-12-05T04:31:02.252Z,96.39
2022-12-05T04:33:45.003Z,95.73
2022-12-05T04:36:21.494Z,95.96
2022-12-05T04:39:02.125Z,95.76
2022-12-05T04:41:38.055Z,94.15
2022-12-05T04:44:13.445Z,94.17
2022-12-05T04:46:48.393Z,94.18
2022-12-05T04:49:24.492Z,92.57
2022-12-05T04:51:58.884Z,94.76
2022-12-05T04:54:38.010Z,94.04
2022-12-05T04:57:19.384Z,93.59
2022-12-05T04:59:52.165Z,92.71
2022-12-05T05:02:30.535Z,93.50
2022-12-05T05:05:09.524Z,93.08
2022-12-05T05:07:50.104Z,93.56
2022-12-05T05:10:30.703Z,92.86
2022-12-05T05:13:02.435Z,92.53
2022-12-05T05:15:34.922Z,90.78
2022-12-05T05:18:06.805Z,92.67
2022-12-05T05:20:38.864Z,94.18
2022-12-05T05:23:10.595Z,94.42
2022-12-05T05:25:45.304Z,92.82
2022-12-05T05:28:17.095Z,93.35
2022-12-05T05:30:49.447Z,94.03
2022-12-05T05:33:21.216Z,94.29
2022-12-05T05:35:53.204Z,93.04
2022-12-05T05:38:25.054Z,93.70
2022-12-05T05:40:59.725Z,93.54
2022-12-05T05:43:31.494Z,94.32
2022-12-05T05:46:07.636Z,94.44
2022-12-05T05:48:39.775Z,93.61
2022-12-05T05:51:14.168Z,93.72
2022-12-05T05:53:46.267Z,93.00
2022-12-05T05:56:22.814Z,93.44
2022-12-05T05:59:13.226Z,93.28
2022-12-05T06:01:45.366Z,93.31
2022-12-05T06:04:17.388Z,93.32
2022-12-05T06:06:49.955Z,93.68
2022-12-05T06:09:21.924Z,92.50
2022-12-05T06:11:57.026Z,92.22
2022-12-05T06:14:29.285Z,91.66
2022-12-05T06:17:01.697Z,92.42
2022-12-05T06:19:33.664Z,92.73
2022-12-05T06:22:06.275Z,92.38
2022-12-05T06:24:38.688Z,92.33
2022-12-05T06:27:13.994Z,92.23
2022-12-05T06:29:46.317Z,92.57
2022-12-05T06:32:20.367Z,92.32
2022-12-05T06:34:52.012Z,92.49
2022-12-05T06:37:24.232Z,93.26
2022-12-05T06:39:56.203Z,92.47
2022-12-05T06:42:31.274Z,92.19
2022-12-05T06:45:02.811Z,92.37
2022-12-05T06:47:38.577Z,92.54
2022-12-05T06:50:11.678Z,93.29
2022-12-05T06:52:43.943Z,91.97
2022-12-05T06:55:15.552Z,92.68
2022-12-05T06:57:54.936Z,92.36
2022-12-05T07:00:39.250Z,91.71
2022-12-05T07:03:14.387Z,91.06
2022-12-05T07:05:46.464Z,91.19
2022-12-05T07:08:18.747Z,92.41
2022-12-05T07:10:55.348Z,89.51
2022-12-05T07:13:31.612Z,91.12
2022-12-05T07:16:04.791Z,92.42
2022-12-05T07:18:36.989Z,93.81
2022-12-05T07:21:16.731Z,92.45
2022-12-05T07:23:50.323Z,93.22
2022-12-05T07:26:26.764Z,93.11
2022-12-05T07:29:03.551Z,92.66
2022-12-05T07:31:36.915Z,93.66
2022-12-05T07:34:09.047Z,93.95
2022-12-05T07:36:49.928Z,93.15
2022-12-05T07:39:21.794Z,93.75
2022-12-05T07:41:53.422Z,93.35
2022-12-05T07:44:30.934Z,93.38
2022-12-05T07:47:04.353Z,93.11
2022-12-05T07:49:37.286Z,93.80
2022-12-05T07:52:10.214Z,93.15
2022-12-05T07:54:42.363Z,93.55
2022-12-05T07:57:14.040Z,93.31
2022-12-05T07:59:49.158Z,92.54
2022-12-05T08:02:20.636Z,92.31
2022-12-05T08:04:52.962Z,92.30
2022-12-05T08:07:27.458Z,91.73
2022-12-05T08:09:59.594Z,91.07
2022-12-05T08:12:31.593Z,91.48
2022-12-05T08:15:08.023Z,91.14
2022-12-05T08:17:39.885Z,91.31
2022-12-05T08:20:12.602Z,92.49
2022-12-05T08:22:44.337Z,93.46
2022-12-05T08:25:19.387Z,92.24
2022-12-05T08:27:50.385Z,92.23
2022-12-05T08:30:24.767Z,93.17
2022-12-05T08:32:57.364Z,92.19
2022-12-05T08:35:29.432Z,91.64
2022-12-05T08:38:02.789Z,92.19
2022-12-05T08:40:36.908Z,92.19
2022-12-05T08:43:13.171Z,92.97
2022-12-05T08:45:55.460Z,92.42
2022-12-05T08:48:29.607Z,93.27
2022-12-05T08:51:03.115Z,92.52
2022-12-05T08:53:44.847Z,92.77
2022-12-05T08:56:22.041Z,92.93
2022-12-05T08:59:05.319Z,93.57
2022-12-05T09:01:42.773Z,93.54
2022-12-05T09:04:15.326Z,92.36
2022-12-05T09:06:48.357Z,92.09
2022-12-05T09:09:20.440Z,92.46
2022-12-05T09:11:55.400Z,92.12
2022-12-05T09:14:33.356Z,90.08
2022-12-05T09:17:08.877Z,90.74
2022-12-05T09:19:40.997Z,91.37
2022-12-05T09:22:13.758Z,91.04
2022-12-05T09:24:45.758Z,91.82
2022-12-05T09:27:18.519Z,93.62
2022-12-05T09:29:50.557Z,93.39
2022-12-05T09:32:26.165Z,92.73
2022-12-05T09:34:58.535Z,90.87
2022-12-05T09:37:39.310Z,91.05
2022-12-05T09:40:20.601Z,90.51
2022-12-05T09:43:08.399Z,88.75
2022-12-05T09:45:43.542Z,88.53
2022-12-05T09:48:23.304Z,89.10
2022-12-05T09:51:01.345Z,89.49
2022-12-05T09:53:36.591Z,88.71
2022-12-05T09:56:15.468Z,88.18
2022-12-05T09:58:51.302Z,87.81
2022-12-05T10:01:35.264Z,88.53
2022-12-05T10:04:40.000Z,87.54
2022-12-05T10:07:21.386Z,89.05
2022-12-05T10:10:03.225Z,88.35
2022-12-05T10:12:57.224Z,87.68
2022-12-05T10:15:36.015Z,88.83
2022-12-05T10:18:18.476Z,90.03
2022-12-05T10:20:58.621Z,90.39
2022-12-05T10:23:57.125Z,89.86
2022-12-05T10:26:34.023Z,90.94
2022-12-05T10:29:16.103Z,90.63
2022-12-05T10:31:52.304Z,90.88
2022-12-05T10:34:33.625Z,91.20
2022-12-05T10:37:15.023Z,90.22
2022-12-05T10:39:48.426Z,90.07
2022-12-05T10:42:26.711Z,89.36
2022-12-05T10:45:01.780Z,88.98
2022-12-05T10:47:36.552Z,90.05
2022-12-05T10:50:20.826Z,91.06
2022-12-05T10:52:59.225Z,90.59
2022-12-05T10:55:37.840Z,90.96
2022-12-05T10:58:17.834Z,91.08
2022-12-05T11:00:53.988Z,88.83
2022-12-05T11:03:31.344Z,88.95
2022-12-05T11:06:17.582Z,89.17
2022-12-05T11:09:04.722Z,89.37
2022-12-05T11:11:37.991Z,88.19
2022-12-05T11:14:24.903Z,88.55
2022-12-05T11:16:59.743Z,87.90
2022-12-05T11:19:35.984Z,88.60
2022-12-05T11:22:25.231Z,89.00
2022-12-05T11:25:07.583Z,87.42
2022-12-05T11:27:40.061Z,88.91
2022-12-05T11:30:23.783Z,88.60
2022-12-05T11:33:15.262Z,87.81
2022-12-05T11:35:50.423Z,88.26
2022-12-05T11:38:32.755Z,89.48
2022-12-05T11:41:25.582Z,89.50
2022-12-05T11:44:17.599Z,89.88
2022-12-05T11:47:02.644Z,91.31
2022-12-05T11:50:01.192Z,91.61
2022-12-05T11:52:49.742Z,90.40
2022-12-05T11:55:27.829Z,89.21
2022-12-05T11:58:19.185Z,90.13
2022-12-05T12:01:07.188Z,89.41
2022-12-05T12:04:08.305Z,89.78
2022-12-05T12:06:56.264Z,90.31
2022-12-05T12:09:40.223Z,90.19
2022-12-05T12:12:26.623Z,90.75
2022-12-05T12:15:14.623Z,90.31
2022-12-05T12:17:56.384Z,90.46
2022-12-05T12:20:41.742Z,90.69
2022-12-05T12:23:40.144Z,91.33
2022-12-05T12:26:17.026Z,89.40
2022-12-05T12:29:05.823Z,90.04
2022-12-05T12:32:02.976Z,90.64
2022-12-05T12:34:53.783Z,89.36
2022-12-05T12:37:36.903Z,88.35
2022-12-05T12:40:18.222Z,87.55
2022-12-05T12:43:06.061Z,88.01
2022-12-05T12:45:55.113Z,89.31
2022-12-05T12:48:55.024Z,89.44
2022-12-05T12:51:28.431Z,89.11
2022-12-05T12:54:40.439Z,88.66
2022-12-05T12:57:24.624Z,88.33
2022-12-05T13:00:06.624Z,87.75
2022-12-05T13:02:47.017Z,87.20
2022-12-05T13:05:31.671Z,88.10
2022-12-05T13:08:08.499Z,89.33
2022-12-05T13:10:44.663Z,88.82
2022-12-05T13:13:21.625Z,88.89
2022-12-05T13:15:58.263Z,89.63
2022-12-05T13:18:31.365Z,89.85
2022-12-05T13:21:11.527Z,89.99
2022-12-05T13:23:50.401Z,90.21
2022-12-05T13:26:27.083Z,90.38
2022-12-05T13:29:09.315Z,90.05
2022-12-05T13:31:45.202Z,89.27
2022-12-05T13:34:49.163Z,88.86
2022-12-05T13:37:43.237Z,89.05
2022-12-05T13:40:44.235Z,89.12
2022-12-05T13:43:20.155Z,89.88
2022-12-05T13:46:06.358Z,89.77
2022-12-05T13:48:43.186Z,89.02
2022-12-05T13:51:26.362Z,88.55
2022-12-05T13:54:10.178Z,88.48
2022-12-05T13:56:55.100Z,88.75
2022-12-05T13:59:58.057Z,88.38
2022-12-05T14:03:03.916Z,88.30
2022-12-05T14:05:44.506Z,88.64
2022-12-05T14:08:49.482Z,87.52
2022-12-05T14:11:25.753Z,86.64
2022-12-05T14:14:04.285Z,86.41
2022-12-05T14:16:48.109Z,86.37
2022-12-05T14:20:06.474Z,86.91
2022-12-05T14:23:06.473Z,87.63
2022-12-05T14:25:59.579Z,87.10
2022-12-05T14:28:52.404Z,85.88
2022-12-05T14:31:38.004Z,86.68
2022-12-05T14:34:28.044Z,85.80
2022-12-05T14:37:07.009Z,86.15
2022-12-05T14:39:44.237Z,86.92
2022-12-05T14:42:32.232Z,88.28
2022-12-05T14:45:34.750Z,87.34
2022-12-05T14:48:29.916Z,88.19
2022-12-05T14:51:04.317Z,86.90
2022-12-05T14:53:59.497Z,87.76
2022-12-05T14:56:32.931Z,87.48
2022-12-05T14:59:10.010Z,87.25
2022-12-05T15:01:52.864Z,87.46
2022-12-05T15:04:39.417Z,88.35
2022-12-05T15:07:16.663Z,88.00
2022-12-05T15:10:00.349Z,88.30
2022-12-05T15:12:40.635Z,88.71
2022-12-05T15:15:22.104Z,89.05
2022-12-05T15:18:05.504Z,90.23
2022-12-05T15:20:46.265Z,89.03
2022-12-05T15:23:43.077Z,88.59
2022-12-05T15:29:28.495Z,88.42
2022-12-05T15:32:02.519Z,88.51
2022-12-05T15:34:45.152Z,87.64
2022-12-05T15:37:21.698Z,87.36
2022-12-05T15:39:57.663Z,88.24
2022-12-05T15:42:33.140Z,90.21
2022-12-05T15:45:23.720Z,88.91
2022-12-05T15:47:58.133Z,87.32
2022-12-05T15:50:40.992Z,88.01
2022-12-05T15:53:20.406Z,88.42
2022-12-05T15:55:57.173Z,88.43
2022-12-05T15:58:37.370Z,88.67
2022-12-05T16:01:20.260Z,88.61
2022-12-05T16:03:57.392Z,89.73
2022-12-05T16:06:37.240Z,89.67
2022-12-05T16:09:22.803Z,89.19
2022-12-05T16:14:59.447Z,90.13
2022-12-05T16:17:46.873Z,90.10
2022-12-05T16:20:34.076Z,88.93
2022-12-05T16:23:26.952Z,88.75
2022-12-05T16:26:23.072Z,89.63
2022-12-05T16:29:02.752Z,90.08
2022-12-05T16:31:36.941Z,89.93
2022-12-05T16:34:11.674Z,89.21
2022-12-05T16:36:50.552Z,90.16
2022-12-05T16:39:28.520Z,91.47
2022-12-05T16:42:01.672Z,90.97
2022-12-05T16:45:05.201Z,91.11
2022-12-05T16:48:02.671Z,90.98
2022-12-05T16:50:38.232Z,91.19
2022-12-05T16:53:24.714Z,91.15
2022-12-05T16:56:02.751Z,90.26
2022-12-05T16:58:39.914Z,89.73
2022-12-05T17:01:51.767Z,89.86
2022-12-05T17:04:24.705Z,89.99
2022-12-05T17:06:57.803Z,90.86
2022-12-05T17:09:49.141Z,89.83
2022-12-05T17:12:28.542Z,90.25
2022-12-05T17:15:01.464Z,89.96
2022-12-05T17:17:34.620Z,89.86
2022-12-05T17:20:07.940Z,90.51
2022-12-05T17:22:40.904Z,89.19
2022-12-05T17:25:23.059Z,89.23
2022-12-05T17:27:58.824Z,89.18
2022-12-05T17:30:30.991Z,89.34
2022-12-05T17:33:03.582Z,89.87
2022-12-05T17:35:56.538Z,90.39
2022-12-05T17:38:28.413Z,88.64
2022-12-05T17:41:02.636Z,86.48
2022-12-05T17:43:44.380Z,87.93
2022-12-05T17:46:19.240Z,86.49
2022-12-05T17:48:53.399Z,87.75
2022-12-05T17:51:27.406Z,89.42
2022-12-05T17:53:59.426Z,87.54
2022-12-05T17:56:31.237Z,86.80
2022-12-05T17:59:07.371Z,86.63
2022-12-05T18:01:39.516Z,89.72
2022-12-05T18:04:11.427Z,89.84
2022-12-05T18:06:42.906Z,88.82
2022-12-05T18:09:15.086Z,88.41
2022-12-05T18:11:46.956Z,88.68
2022-12-05T18:14:21.841Z,87.80
2022-12-05T18:16:53.694Z,87.70
2022-12-05T18:22:37.519Z,90.60
2022-12-05T18:25:11.401Z,88.59
2022-12-05T18:27:43.465Z,86.88
2022-12-05T18:30:18.942Z,86.29
2022-12-05T18:32:51.562Z,88.21
2022-12-05T18:35:40.895Z,88.32
2022-12-05T18:38:14.592Z,88.37
2022-12-05T18:40:47.039Z,87.54
2022-12-05T18:43:19.358Z,87.76
2022-12-05T18:46:02.426Z,87.45
2022-12-05T18:48:48.022Z,86.48
2022-12-05T18:51:22.861Z,87.50
2022-12-05T18:53:57.320Z,87.21
2022-12-05T18:56:31.601Z,85.06
2022-12-05T18:59:06.301Z,85.52
2022-12-05T19:01:42.614Z,85.37
2022-12-05T19:04:17.041Z,86.29
2022-12-05T19:06:52.616Z,86.64
2022-12-05T19:09:27.060Z,86.57
2022-12-05T19:12:01.862Z,87.38
2022-12-05T19:14:35.579Z,86.05
2022-12-05T19:17:10.765Z,86.11
2022-12-05T19:19:43.200Z,87.28
2022-12-05T19:22:15.759Z,87.85
2022-12-05T19:24:48.356Z,88.29
2022-12-05T19:27:20.760Z,88.07
2022-12-05T19:29:53.019Z,86.55
2022-12-05T19:32:28.222Z,85.94
2022-12-05T19:35:00.723Z,87.81
2022-12-05T19:37:34.551Z,88.49
2022-12-05T19:40:07.159Z,88.80
2022-12-05T19:42:39.663Z,88.45
2022-12-05T19:45:17.776Z,87.27
2022-12-05T19:47:53.620Z,89.20
2022-12-05T19:50:25.678Z,87.92
2022-12-05T19:52:58.239Z,87.84
2022-12-05T19:55:30.540Z,88.87
2022-12-05T19:58:03.021Z,89.96
2022-12-05T20:00:35.159Z,87.80
2022-12-05T20:03:12.330Z,86.82
2022-12-05T20:05:46.240Z,89.26
2022-12-05T20:08:19.148Z,90.59
2022-12-05T20:10:53.266Z,91.71
2022-12-05T20:16:23.497Z,90.41
2022-12-05T20:19:03.857Z,91.39
2022-12-05T20:21:40.087Z,91.11
2022-12-05T20:24:11.971Z,91.61
2022-12-05T20:26:48.334Z,89.46
2022-12-05T20:29:24.455Z,90.66
2022-12-05T20:31:58.864Z,92.61
2022-12-05T20:34:33.454Z,93.68
2022-12-05T20:37:05.300Z,94.95
2022-12-05T20:39:37.405Z,93.91
2022-12-05T20:42:08.892Z,92.83
2022-12-05T20:44:40.820Z,91.89
2022-12-05T20:47:12.104Z,91.67
2022-12-05T20:49:55.506Z,91.01
2022-12-05T20:52:28.969Z,90.69
2022-12-05T20:55:02.962Z,93.15
2022-12-05T20:57:36.633Z,92.39
2022-12-05T21:00:10.753Z,91.73
2022-12-05T21:02:42.746Z,91.40
2022-12-05T21:05:17.814Z,91.41
2022-12-05T21:07:49.879Z,90.20
2022-12-05T21:10:22.182Z,88.14
2022-12-05T21:12:54.002Z,88.83
2022-12-05T21:15:26.274Z,88.21
2022-12-05T21:17:58.517Z,88.36
2022-12-05T21:20:37.529Z,86.88
2022-12-05T21:23:12.254Z,86.30
2022-12-05T21:25:44.615Z,85.35
2022-12-05T21:28:16.516Z,86.36
2022-12-05T21:30:48.895Z,87.10
2022-12-05T21:33:25.781Z,87.22
2022-12-05T21:36:03.676Z,86.63
2022-12-05T21:38:36.116Z,87.44
2022-12-05T21:41:09.039Z,87.65
2022-12-05T21:43:40.993Z,86.15
2022-12-05T21:46:13.339Z,84.43
2022-12-05T21:48:45.116Z,84.48
2022-12-05T21:51:20.073Z,86.41
2022-12-05T21:53:52.014Z,86.44
2022-12-05T21:56:25.913Z,86.51
2022-12-05T21:58:57.855Z,87.73
2022-12-05T22:01:31.764Z,86.36
2022-12-05T22:04:03.672Z,85.92
2022-12-05T22:06:38.248Z,88.06
2022-12-05T22:09:10.934Z,88.97
2022-12-05T22:11:43.201Z,87.94
2022-12-05T22:14:14.791Z,88.39
2022-12-05T22:16:46.885Z,89.56
2022-12-05T22:19:18.895Z,91.05
2022-12-05T22:21:53.639Z,90.14
2022-12-05T22:24:25.162Z,88.56
2022-12-05T22:26:57.257Z,90.63
2022-12-05T22:29:28.947Z,90.57
2022-12-05T22:32:01.088Z,90.28
2022-12-05T22:34:32.549Z,90.63
2022-12-05T22:37:09.788Z,89.65
2022-12-05T22:39:41.427Z,91.92
2022-12-05T22:42:13.683Z,92.09
2022-12-05T22:44:45.143Z,91.06
2022-12-05T22:47:16.883Z,89.81
2022-12-05T22:49:48.517Z,90.72
2022-12-05T22:52:23.219Z,91.23
2022-12-05T22:54:54.743Z,91.60
2022-12-05T22:57:26.753Z,93.13
2022-12-05T22:59:58.512Z,89.58
2022-12-05T23:02:31.062Z,90.06
2022-12-05T23:05:03.256Z,89.58
2022-12-05T23:07:38.054Z,88.22
2022-12-05T23:10:11.293Z,87.77
2022-12-05T23:12:43.405Z,87.01
2022-12-05T23:15:15.009Z,88.46
2022-12-05T23:17:49.679Z,88.90
2022-12-05T23:20:21.634Z,87.77
2022-12-05T23:22:56.307Z,87.29
2022-12-05T23:25:27.965Z,87.82
2022-12-05T23:27:59.672Z,89.84
2022-12-05T23:30:31.291Z,87.86
2022-12-05T23:33:03.253Z,86.87
2022-12-05T23:35:37.130Z,87.42
2022-12-05T23:38:12.290Z,86.95
2022-12-05T23:40:43.907Z,87.39
2022-12-05T23:43:16.179Z,88.44
2022-12-05T23:45:48.115Z,89.52
2022-12-05T23:48:20.041Z,87.88
2022-12-05T23:51:01.544Z,85.93
2022-12-05T23:53:38.195Z,86.05
2022-12-05T23:56:12.646Z,84.35
2022-12-05T23:58:44.538Z,85.27
